Time;durP1;ratioP1;P1;durP2;ratioP2;P2;SDS_P1;SDS_P2;PMS_P1;PMS_P2;Temp;Humidity;BMP_temperature;BMP_pressure;BME280_temperature;BME280_humidity;BME280_pressure;Samples;Min_cycle;Max_cycle;Signal;HPM_P1;HPM_P2
2023/12/12 00:02:23;;;;;;;0.88;0.77;;;4.30;99.90;;;;;;5054845;28;20033;-80
2023/12/12 00:04:49;;;;;;;0.43;0.40;;;4.30;99.90;;;;;;5056273;28;20060;-80
2023/12/12 00:07:14;;;;;;;0.50;0.47;;;4.30;99.90;;;;;;5054609;28;20481;-80
2023/12/12 00:09:40;;;;;;;0.32;0.32;;;4.30;99.90;;;;;;5059267;28;20449;-80
2023/12/12 00:12:06;;;;;;;2.28;1.15;;;4.40;99.90;;;;;;5055071;28;20045;-80
2023/12/12 00:14:32;;;;;;;0.85;0.60;;;4.30;99.90;;;;;;5033621;28;20037;-80
2023/12/12 00:16:58;;;;;;;2.13;0.85;;;4.30;99.90;;;;;;5053739;28;20510;-80
2023/12/12 00:19:23;;;;;;;1.67;0.70;;;4.30;99.90;;;;;;5041754;28;20090;-80
2023/12/12 00:21:49;;;;;;;0.30;0.30;;;4.30;99.90;;;;;;5058256;28;20036;-80
2023/12/12 00:24:15;;;;;;;0.68;0.40;;;4.20;99.90;;;;;;5041329;28;20120;-80
2023/12/12 00:26:41;;;;;;;1.10;0.68;;;4.20;99.90;;;;;;5050114;28;20069;-80
2023/12/12 00:29:06;;;;;;;1.38;0.65;;;4.20;99.90;;;;;;5051276;28;20045;-80
2023/12/12 00:31:32;;;;;;;0.95;0.47;;;4.20;99.90;;;;;;5057504;28;20049;-80
2023/12/12 00:33:58;;;;;;;0.43;0.40;;;4.10;99.90;;;;;;5054331;28;20041;-80
2023/12/12 00:36:24;;;;;;;0.30;0.30;;;4.10;99.90;;;;;;5055831;28;20553;-80
2023/12/12 00:38:49;;;;;;;0.70;0.50;;;4.00;99.90;;;;;;5056052;28;20064;-80
2023/12/12 00:41:15;;;;;;;1.88;0.98;;;4.00;99.90;;;;;;5056772;28;20028;-80
2023/12/12 00:43:41;;;;;;;1.88;1.08;;;3.90;99.90;;;;;;5054179;28;20041;-80
2023/12/12 00:46:10;;;;;;;1.30;0.75;;;3.90;99.90;;;;;;5048755;28;20037;-80
2023/12/12 00:48:35;;;;;;;0.82;0.60;;;3.80;99.90;;;;;;5052921;28;20517;-80
2023/12/12 00:51:01;;;;;;;1.00;0.70;;;3.80;99.90;;;;;;5057894;28;20045;-80
2023/12/12 00:53:27;;;;;;;1.27;0.60;;;3.80;99.90;;;;;;5057862;28;20037;-80
2023/12/12 00:55:53;;;;;;;4.22;0.68;;;3.80;99.90;;;;;;5060134;28;20052;-80
2023/12/12 00:58:19;;;;;;;0.93;0.63;;;3.80;99.90;;;;;;5050694;28;20055;-80
2023/12/12 01:00:44;;;;;;;1.45;0.85;;;3.80;99.90;;;;;;5055633;28;20094;-80
2023/12/12 01:03:10;;;;;;;1.77;0.65;;;3.80;99.90;;;;;;5055549;28;20126;-80
2023/12/12 01:05:36;;;;;;;0.85;0.68;;;3.80;99.90;;;;;;5063275;28;20542;-80
2023/12/12 01:08:02;;;;;;;2.10;0.77;;;3.70;99.90;;;;;;5059551;28;20032;-80
2023/12/12 01:10:28;;;;;;;4.10;0.45;;;3.70;99.90;;;;;;5050447;28;20032;-80
2023/12/12 01:12:54;;;;;;;0.73;0.40;;;3.70;99.90;;;;;;5078888;28;20033;-80
2023/12/12 01:15:20;;;;;;;2.05;1.05;;;3.60;99.90;;;;;;5057204;28;20061;-80
2023/12/12 01:17:46;;;;;;;1.88;0.60;;;3.60;99.90;;;;;;5065282;28;20063;-80
2023/12/12 01:20:11;;;;;;;0.77;0.38;;;3.50;99.90;;;;;;5073847;28;20600;-80
2023/12/12 01:22:37;;;;;;;1.85;0.40;;;3.50;99.90;;;;;;5071222;28;20036;-80
2023/12/12 01:25:03;;;;;;;2.13;0.63;;;3.40;99.90;;;;;;5073074;28;20033;-80
2023/12/12 01:27:29;;;;;;;2.13;0.75;;;3.40;99.90;;;;;;5049338;28;20063;-80
2023/12/12 01:29:55;;;;;;;4.32;0.90;;;3.30;99.90;;;;;;5076233;28;20040;-80
2023/12/12 01:32:21;;;;;;;3.17;0.60;;;3.30;99.90;;;;;;5053525;28;20124;-80
2023/12/12 01:34:46;;;;;;;5.32;1.13;;;3.30;99.90;;;;;;5048044;28;20041;-80
2023/12/12 01:37:12;;;;;;;0.30;0.30;;;3.30;99.90;;;;;;5042839;28;20037;-80
2023/12/12 01:39:38;;;;;;;0.47;0.47;;;3.30;99.90;;;;;;5064011;28;20062;-80
2023/12/12 01:42:04;;;;;;;1.27;0.80;;;3.30;99.90;;;;;;5048610;28;20102;-80
2023/12/12 01:44:30;;;;;;;0.88;0.57;;;3.30;99.90;;;;;;5056557;28;20028;-80
2023/12/12 01:46:55;;;;;;;0.57;0.30;;;3.30;99.90;;;;;;5051480;28;20523;-80
2023/12/12 01:49:21;;;;;;;0.73;0.40;;;3.30;99.90;;;;;;5050318;28;20033;-80
2023/12/12 01:51:47;;;;;;;0.25;0.20;;;3.30;99.90;;;;;;5064217;28;20036;-80
2023/12/12 01:54:17;;;;;;;0.55;0.45;;;3.20;99.90;;;;;;5055913;28;20032;-80
2023/12/12 01:56:47;;;;;;;1.02;0.50;;;3.10;99.90;;;;;;5040281;28;20057;-80
2023/12/12 01:59:12;;;;;;;;;;;3.10;99.90;;;;;;5034448;28;20383;-80
2023/12/12 02:01:39;;;;;;;0.50;0.30;;;3.10;99.90;;;;;;5065862;28;19923;-81
2023/12/12 02:04:05;;;;;;;1.27;0.98;;;3.10;99.90;;;;;;5036796;28;20652;-81
2023/12/12 02:06:31;;;;;;;1.35;0.77;;;3.20;99.90;;;;;;5031983;28;20146;-81
2023/12/12 02:08:57;;;;;;;2.38;0.65;;;3.30;99.90;;;;;;5032594;28;20064;-81
2023/12/12 02:11:23;;;;;;;0.60;0.40;;;3.30;99.90;;;;;;5045174;28;20042;-81
2023/12/12 02:13:49;;;;;;;1.90;0.68;;;3.30;99.90;;;;;;5037518;28;20041;-81
2023/12/12 02:16:15;;;;;;;2.17;0.98;;;3.30;99.90;;;;;;5034688;28;20100;-81
2023/12/12 02:18:40;;;;;;;2.17;0.50;;;3.30;99.90;;;;;;5032478;28;20040;-80
2023/12/12 02:21:06;;;;;;;1.38;0.80;;;3.20;99.90;;;;;;5027932;28;20037;-80
2023/12/12 02:23:32;;;;;;;1.15;0.52;;;3.20;99.90;;;;;;5036596;28;20557;-80
2023/12/12 02:26:02;;;;;;;2.92;0.60;;;3.30;99.90;;;;;;5053711;28;20044;-80
2023/12/12 02:28:29;;;;;;;0.88;0.70;;;3.30;99.90;;;;;;5037091;28;20441;-80
2023/12/12 02:30:55;;;;;;;4.60;0.70;;;3.40;99.90;;;;;;5049455;28;20060;-80
2023/12/12 02:33:20;;;;;;;3.70;0.75;;;3.40;99.90;;;;;;5048996;28;20044;-80
2023/12/12 02:35:46;;;;;;;2.80;1.23;;;3.40;99.90;;;;;;5046812;28;20411;-80
2023/12/12 02:38:13;;;;;;;3.92;1.17;;;3.40;99.90;;;;;;5029156;28;20045;-80
2023/12/12 02:40:39;;;;;;;1.48;0.60;;;3.40;99.90;;;;;;5063712;28;20120;-80
2023/12/12 02:43:05;;;;;;;1.92;0.85;;;3.30;99.90;;;;;;5032456;28;20033;-80
2023/12/12 02:45:31;;;;;;;2.70;1.25;;;3.30;99.90;;;;;;5051278;28;20033;-80
2023/12/12 02:47:56;;;;;;;1.60;1.17;;;3.30;99.90;;;;;;5026837;28;20033;-80
2023/12/12 02:50:22;;;;;;;1.17;0.90;;;3.30;99.90;;;;;;5029400;28;20086;-80
2023/12/12 02:52:48;;;;;;;6.35;1.45;;;3.20;99.90;;;;;;5024960;28;20037;-80
2023/12/12 02:55:14;;;;;;;1.63;1.05;;;3.20;99.90;;;;;;5036279;28;20045;-80
2023/12/12 02:57:40;;;;;;;3.83;1.13;;;3.20;99.90;;;;;;5042701;28;20075;-80
2023/12/12 03:00:06;;;;;;;1.48;0.68;;;3.30;99.90;;;;;;5054972;28;20036;-80
2023/12/12 03:02:33;;;;;;;1.05;0.82;;;3.30;99.90;;;;;;5062097;28;20070;-81
2023/12/12 03:04:59;;;;;;;3.13;1.60;;;3.30;99.90;;;;;;5069266;28;20078;-81
2023/12/12 03:07:25;;;;;;;2.92;1.50;;;3.40;99.90;;;;;;5061310;28;20048;-81
2023/12/12 03:09:51;;;;;;;2.72;1.13;;;3.40;99.90;;;;;;5049309;28;20056;-81
2023/12/12 03:12:17;;;;;;;2.80;1.33;;;3.50;99.90;;;;;;5067359;28;20040;-81
2023/12/12 03:14:43;;;;;;;1.10;0.75;;;3.50;99.90;;;;;;5071052;28;20107;-80
2023/12/12 03:17:09;;;;;;;2.53;1.38;;;3.50;99.90;;;;;;5054885;28;20071;-80
2023/12/12 03:19:35;;;;;;;2.33;0.90;;;3.60;99.90;;;;;;5074448;28;20494;-81
2023/12/12 03:22:00;;;;;;;8.70;1.05;;;3.60;99.90;;;;;;5076401;28;20044;-81
2023/12/12 03:24:27;;;;;;;1.20;0.73;;;3.70;99.90;;;;;;5057359;28;20032;-81
2023/12/12 03:26:52;;;;;;;3.35;1.70;;;3.80;99.90;;;;;;5061801;28;20486;-81
2023/12/12 03:29:18;;;;;;;3.10;0.88;;;3.80;99.90;;;;;;5079282;28;20040;-81
2023/12/12 03:31:44;;;;;;;3.58;1.95;;;3.90;99.90;;;;;;5087551;28;20170;-81
2023/12/12 03:34:10;;;;;;;1.88;1.13;;;4.00;99.90;;;;;;5050628;28;20036;-81
2023/12/12 03:36:41;;;;;;;3.05;1.23;;;4.00;99.90;;;;;;5069616;28;20094;-81
2023/12/12 03:39:07;;;;;;;1.88;1.05;;;4.10;99.90;;;;;;5060795;28;20044;-81
2023/12/12 03:41:33;;;;;;;2.70;1.10;;;4.10;99.90;;;;;;5088041;28;20123;-81
2023/12/12 03:43:59;;;;;;;6.55;2.08;;;4.10;99.90;;;;;;5072778;28;20056;-81
2023/12/12 03:46:24;;;;;;;4.35;1.65;;;4.10;99.90;;;;;;5081281;28;20051;-81
2023/12/12 03:48:50;;;;;;;6.88;1.90;;;4.10;99.90;;;;;;5074192;28;20033;-81
2023/12/12 03:51:16;;;;;;;3.67;1.52;;;4.10;99.90;;;;;;5051058;28;20436;-81
2023/12/12 03:53:42;;;;;;;5.30;1.80;;;4.10;99.90;;;;;;5053439;28;20513;-81
2023/12/12 03:56:08;;;;;;;2.15;1.30;;;4.10;99.90;;;;;;5074243;28;20616;-81
2023/12/12 03:58:34;;;;;;;2.33;1.52;;;4.10;99.90;;;;;;5074992;28;22616;-81
2023/12/12 04:01:00;;;;;;;6.93;2.17;;;4.10;99.90;;;;;;5060673;28;20036;-81
2023/12/12 04:03:26;;;;;;;6.07;1.60;;;4.10;99.90;;;;;;5081616;28;20087;-81
2023/12/12 04:05:52;;;;;;;1.85;1.45;;;4.10;99.90;;;;;;5058901;28;20066;-81
2023/12/12 04:08:18;;;;;;;2.90;1.38;;;4.20;99.90;;;;;;5056580;28;20040;-81
2023/12/12 04:10:44;;;;;;;10.75;1.67;;;4.20;99.90;;;;;;5078186;28;20036;-81
2023/12/12 04:13:10;;;;;;;4.70;2.25;;;4.20;99.90;;;;;;5061237;28;20055;-81
2023/12/12 04:15:36;;;;;;;5.13;1.75;;;4.30;99.90;;;;;;5055559;28;20416;-81
2023/12/12 04:18:02;;;;;;;1.65;1.13;;;4.30;99.90;;;;;;5054436;28;20032;-81
2023/12/12 04:20:27;;;;;;;3.67;1.85;;;4.30;99.90;;;;;;5057288;28;20043;-81
2023/12/12 04:22:53;;;;;;;4.10;2.15;;;4.30;99.90;;;;;;5065611;28;20490;-81
2023/12/12 04:25:19;;;;;;;4.53;2.50;;;4.40;99.90;;;;;;5075805;28;20464;-81
2023/12/12 04:27:45;;;;;;;4.47;1.67;;;4.40;99.90;;;;;;5076196;28;20046;-81
2023/12/12 04:30:11;;;;;;;3.00;1.60;;;4.40;99.90;;;;;;5054759;28;20048;-81
2023/12/12 04:32:37;;;;;;;5.43;2.08;;;4.50;99.90;;;;;;5055643;28;20032;-81
2023/12/12 04:35:09;;;;;;;4.00;2.15;;;4.50;99.90;;;;;;5060080;28;20095;-81
2023/12/12 04:37:36;;;;;;;4.65;2.85;;;4.60;99.90;;;;;;5057877;28;20041;-81
2023/12/12 04:40:01;;;;;;;2.58;1.48;;;4.60;99.90;;;;;;5058579;28;20044;-81
2023/12/12 04:42:27;;;;;;;4.25;1.65;;;4.70;99.90;;;;;;5083070;28;20502;-81
2023/12/12 04:44:53;;;;;;;4.30;2.10;;;4.80;99.90;;;;;;5071056;28;20068;-81
2023/12/12 04:47:19;;;;;;;7.15;2.72;;;4.80;99.90;;;;;;5055851;28;20039;-81
2023/12/12 04:49:44;;;;;;;4.35;2.55;;;4.90;99.90;;;;;;5056453;28;20065;-81
2023/12/12 04:52:10;;;;;;;6.80;2.92;;;4.90;99.90;;;;;;5050285;28;20036;-81
2023/12/12 04:54:36;;;;;;;5.57;1.85;;;5.00;99.90;;;;;;5046934;28;20048;-81
2023/12/12 04:57:02;;;;;;;5.00;2.63;;;5.00;99.90;;;;;;5068978;28;20094;-81
2023/12/12 04:59:28;;;;;;;7.22;3.13;;;5.00;99.90;;;;;;5087904;28;20047;-81
2023/12/12 05:01:54;;;;;;;7.30;2.58;;;5.10;99.90;;;;;;5061182;28;20048;-81
2023/12/12 05:04:20;;;;;;;10.02;2.53;;;5.10;99.90;;;;;;5058024;28;20063;-81
2023/12/12 05:06:47;;;;;;;5.30;2.58;;;5.20;99.90;;;;;;5056307;28;20561;-81
2023/12/12 05:09:13;;;;;;;4.93;2.33;;;5.20;99.90;;;;;;5069112;28;20565;-80
2023/12/12 05:11:38;;;;;;;10.70;2.70;;;5.20;99.90;;;;;;5056271;28;20075;-81
2023/12/12 05:14:06;;;;;;;9.70;2.40;;;5.20;99.90;;;;;;5052303;28;20056;-81
2023/12/12 05:16:32;;;;;;;6.88;2.15;;;5.20;99.90;;;;;;5066039;28;20045;-81
2023/12/12 05:18:58;;;;;;;9.75;2.50;;;5.20;99.90;;;;;;5059351;28;20108;-81
2023/12/12 05:21:25;;;;;;;7.13;2.33;;;5.30;99.90;;;;;;5067830;28;20029;-81
2023/12/12 05:23:51;;;;;;;8.05;2.25;;;5.30;99.90;;;;;;5050995;28;20032;-81
2023/12/12 05:26:20;;;;;;;8.73;2.33;;;5.30;99.90;;;;;;5057298;28;20494;-81
2023/12/12 05:28:46;;;;;;;5.85;1.20;;;5.30;99.90;;;;;;5065450;28;20040;-81
2023/12/12 05:31:12;;;;;;;9.68;3.28;;;5.30;99.90;;;;;;5054215;28;20044;-81
2023/12/12 05:33:38;;;;;;;7.82;3.38;;;5.40;99.90;;;;;;5072077;28;20081;-81
2023/12/12 05:36:04;;;;;;;8.80;2.92;;;5.40;99.90;;;;;;5058156;28;20190;-81
2023/12/12 05:38:30;;;;;;;11.88;2.97;;;5.50;99.90;;;;;;5055112;28;20180;-81
2023/12/12 05:40:56;;;;;;;5.72;2.78;;;5.60;99.90;;;;;;5049759;28;20037;-81
2023/12/12 05:43:22;;;;;;;5.05;2.85;;;5.60;99.90;;;;;;5066906;28;20039;-81
2023/12/12 05:45:49;;;;;;;9.73;3.42;;;5.70;99.90;;;;;;5062109;28;20055;-81
2023/12/12 05:48:15;;;;;;;11.23;4.20;;;5.80;99.90;;;;;;5046952;28;20068;-81
2023/12/12 05:50:41;;;;;;;9.32;4.38;;;5.90;99.90;;;;;;5058581;28;20116;-81
2023/12/12 05:53:07;;;;;;;9.73;3.90;;;5.90;99.90;;;;;;5052665;28;20047;-81
2023/12/12 05:55:33;;;;;;;7.93;3.40;;;6.00;99.90;;;;;;5053580;28;20055;-81
2023/12/12 05:57:58;;;;;;;6.88;3.83;;;6.00;99.90;;;;;;5069655;28;20040;-81
2023/12/12 06:00:27;;;;;;;8.30;3.28;;;6.10;99.90;;;;;;5049496;28;20098;-81
2023/12/12 06:02:54;;;;;;;8.70;4.35;;;6.20;99.90;;;;;;5057831;28;20031;-81
2023/12/12 06:05:20;;;;;;;7.78;3.15;;;6.20;99.90;;;;;;5049430;28;20032;-81
2023/12/12 06:07:46;;;;;;;10.57;5.05;;;6.20;99.90;;;;;;5045627;28;20063;-81
2023/12/12 06:10:12;;;;;;;9.70;4.60;;;6.30;99.90;;;;;;5056001;28;20043;-81
2023/12/12 06:12:40;;;;;;;11.73;5.20;;;6.40;99.90;;;;;;5057784;28;20035;-81
2023/12/12 06:15:07;;;;;;;13.07;5.97;;;6.40;99.90;;;;;;5056264;28;20402;-81
2023/12/12 06:17:38;;;;;;;11.43;5.15;;;6.40;99.90;;;;;;5050422;28;20640;-81
2023/12/12 06:20:04;;;;;;;11.38;5.95;;;6.40;99.90;;;;;;5063354;28;20044;-81
2023/12/12 06:22:30;;;;;;;16.48;5.95;;;6.40;99.90;;;;;;5087946;28;20087;-81
2023/12/12 06:24:56;;;;;;;13.20;5.53;;;6.40;99.90;;;;;;5070866;28;20472;-81
2023/12/12 06:27:22;;;;;;;11.10;5.40;;;6.40;99.90;;;;;;5057125;28;20036;-81
2023/12/12 06:29:49;;;;;;;11.25;4.13;;;6.50;99.90;;;;;;5056639;28;20040;-81
2023/12/12 06:32:16;;;;;;;11.70;5.07;;;6.50;99.90;;;;;;5087705;28;20040;-81
2023/12/12 06:34:43;;;;;;;10.13;4.85;;;6.50;99.90;;;;;;5066939;28;20108;-81
2023/12/12 06:37:10;;;;;;;14.52;4.43;;;6.40;99.90;;;;;;5055965;28;20126;-81
2023/12/12 06:39:36;;;;;;;9.25;4.55;;;6.40;99.90;;;;;;5050896;28;20044;-81
2023/12/12 06:42:03;;;;;;;12.75;5.97;;;6.40;99.90;;;;;;5055635;28;20505;-81
2023/12/12 06:44:29;;;;;;;11.05;6.40;;;6.50;99.90;;;;;;5085754;28;20689;-81
2023/12/12 06:46:54;;;;;;;15.70;5.70;;;6.50;99.90;;;;;;5068336;28;20024;-81
2023/12/12 06:49:20;;;;;;;10.70;5.05;;;6.50;99.90;;;;;;5091096;28;20044;-81
2023/12/12 06:51:46;;;;;;;16.10;5.80;;;6.50;99.90;;;;;;5067930;28;20032;-81
2023/12/12 06:54:12;;;;;;;14.70;6.60;;;6.50;99.90;;;;;;5072396;28;20423;-81
2023/12/12 06:56:38;;;;;;;15.88;5.10;;;6.40;99.90;;;;;;5075996;28;20495;-81
2023/12/12 06:59:05;;;;;;;13.40;6.10;;;6.30;99.90;;;;;;5052120;28;20066;-81
2023/12/12 07:01:31;;;;;;;10.40;4.55;;;6.20;99.90;;;;;;5077287;28;20043;-81
2023/12/12 07:03:57;;;;;;;11.38;5.53;;;6.10;99.90;;;;;;5052707;28;20487;-81
2023/12/12 07:06:23;;;;;;;15.07;6.30;;;6.00;99.90;;;;;;5068681;28;20048;-81
2023/12/12 07:08:49;;;;;;;12.75;5.85;;;5.90;99.90;;;;;;5054036;28;20041;-80
2023/12/12 07:11:15;;;;;;;13.27;5.22;;;5.90;99.90;;;;;;5055521;28;20037;-80
2023/12/12 07:13:41;;;;;;;11.13;5.68;;;5.90;99.90;;;;;;5069100;28;20036;-80
2023/12/12 07:16:12;;;;;;;13.52;4.72;;;5.90;99.90;;;;;;5053279;28;20568;-80
2023/12/12 07:18:38;;;;;;;13.82;5.30;;;5.80;99.90;;;;;;5046871;28;20072;-80
2023/12/12 07:21:07;;;;;;;9.18;4.85;;;5.80;99.90;;;;;;5053077;28;20103;-80
2023/12/12 07:23:33;;;;;;;8.47;5.00;;;5.80;99.90;;;;;;5072441;28;20071;-80
2023/12/12 07:25:59;;;;;;;11.02;5.38;;;5.80;99.90;;;;;;5054827;28;20074;-80
2023/12/12 07:28:25;;;;;;;18.05;5.30;;;5.80;99.90;;;;;;5070198;28;20045;-80
2023/12/12 07:30:53;;;;;;;10.27;5.70;;;5.80;99.90;;;;;;5074752;28;20517;-80
2023/12/12 07:33:19;;;;;;;15.25;5.93;;;5.80;99.90;;;;;;5063747;28;20037;-80
2023/12/12 07:35:45;;;;;;;14.10;6.30;;;5.80;99.90;;;;;;5045897;28;20075;-81
2023/12/12 07:38:10;;;;;;;10.48;5.35;;;5.80;99.90;;;;;;5066348;28;20101;-81
2023/12/12 07:40:36;;;;;;;11.48;6.03;;;5.70;99.90;;;;;;5058826;28;20110;-81
2023/12/12 07:43:02;;;;;;;13.50;5.05;;;5.70;99.90;;;;;;5060801;28;20068;-81
2023/12/12 07:45:28;;;;;;;10.23;5.43;;;5.60;99.90;;;;;;5044599;28;20055;-81
2023/12/12 07:47:53;;;;;;;9.35;5.22;;;5.50;99.90;;;;;;5053786;28;20040;-81
2023/12/12 07:50:19;;;;;;;11.30;4.95;;;5.40;99.90;;;;;;5068920;28;20490;-81
2023/12/12 07:52:47;;;;;;;11.75;5.15;;;5.30;99.90;;;;;;5071491;28;20042;-80
2023/12/12 07:55:13;;;;;;;7.35;3.90;;;5.20;99.90;;;;;;5056625;28;20074;-81
2023/12/12 07:57:39;;;;;;;10.25;5.45;;;5.20;99.90;;;;;;5074795;28;20410;-81
2023/12/12 08:00:09;;;;;;;12.57;5.63;;;5.10;99.90;;;;;;5040946;28;20120;-81
2023/12/12 08:02:36;;;;;;;15.40;5.97;;;5.10;99.90;;;;;;5039642;28;20077;-82
2023/12/12 08:05:03;;;;;;;8.80;5.22;;;5.00;99.90;;;;;;5061949;28;20064;-82
2023/12/12 08:07:28;;;;;;;9.95;4.35;;;5.00;99.90;;;;;;5059849;28;20295;-82
2023/12/12 08:09:54;;;;;;;12.52;6.82;;;5.00;99.90;;;;;;5034411;28;20045;-82
2023/12/12 08:12:21;;;;;;;9.77;4.13;;;5.00;99.90;;;;;;5057561;28;20076;-82
2023/12/12 08:14:47;;;;;;;13.27;6.00;;;5.00;99.90;;;;;;5046218;28;20106;-81
2023/12/12 08:17:13;;;;;;;13.73;5.63;;;5.00;99.90;;;;;;5037775;28;20048;-81
2023/12/12 08:19:38;;;;;;;10.93;5.50;;;5.00;99.90;;;;;;5045246;28;20117;-81
2023/12/12 08:22:04;;;;;;;11.88;5.75;;;5.00;99.90;;;;;;5031401;28;20037;-82
2023/12/12 08:24:30;;;;;;;11.27;6.20;;;5.00;99.90;;;;;;5063748;28;20033;-82
2023/12/12 08:26:56;;;;;;;13.70;5.53;;;5.00;99.90;;;;;;5037632;28;20491;-82
2023/12/12 08:29:21;;;;;;;10.88;5.40;;;5.00;99.90;;;;;;5033718;28;20069;-82
2023/12/12 08:31:50;;;;;;;12.45;6.70;;;5.00;99.90;;;;;;5055024;28;20495;-81
2023/12/12 08:34:16;;;;;;;9.82;5.95;;;4.90;99.90;;;;;;5048920;28;20037;-81
2023/12/12 08:36:42;;;;;;;11.57;5.90;;;4.90;99.90;;;;;;5052417;28;20048;-81
2023/12/12 08:39:07;;;;;;;8.35;5.63;;;4.80;99.90;;;;;;5053374;28;20037;-81
2023/12/12 08:41:36;;;;;;;10.73;5.43;;;4.80;99.90;;;;;;5063516;28;20064;-81
2023/12/12 08:44:02;;;;;;;14.63;5.50;;;4.80;99.90;;;;;;5041256;28;20041;-81
2023/12/12 08:46:28;;;;;;;12.60;6.38;;;4.80;99.90;;;;;;5037063;28;20037;-81
2023/12/12 08:48:58;;;;;;;11.95;5.13;;;4.80;99.90;;;;;;5046815;28;20507;-81
2023/12/12 08:51:24;;;;;;;10.98;5.95;;;4.80;99.90;;;;;;5032571;28;20037;-81
2023/12/12 08:53:53;;;;;;;9.77;5.10;;;4.90;99.90;;;;;;5029206;28;20052;-81
2023/12/12 08:56:19;;;;;;;13.10;6.38;;;5.00;99.90;;;;;;5042659;28;20426;-81
2023/12/12 08:58:47;;;;;;;12.27;5.30;;;5.00;99.90;;;;;;5037820;28;20045;-81
2023/12/12 09:01:14;;;;;;;11.02;6.38;;;5.10;99.90;;;;;;5055316;28;20041;-81
2023/12/12 09:03:41;;;;;;;11.25;5.47;;;5.10;99.90;;;;;;5070434;28;20040;-82
2023/12/12 09:06:08;;;;;;;13.52;6.85;;;5.20;99.90;;;;;;5053894;28;20041;-82
2023/12/12 09:08:34;;;;;;;11.57;6.72;;;5.10;99.90;;;;;;5050760;28;20049;-82
2023/12/12 09:11:00;;;;;;;11.50;5.72;;;5.20;99.90;;;;;;5053055;28;20284;-82
2023/12/12 09:13:27;;;;;;;10.52;5.60;;;5.20;99.90;;;;;;5054645;28;20120;-82
2023/12/12 09:15:53;;;;;;;8.50;4.85;;;5.20;99.90;;;;;;5054053;28;20090;-82
2023/12/12 09:18:18;;;;;;;15.30;6.88;;;5.20;99.90;;;;;;5052832;28;20040;-81
2023/12/12 09:20:44;;;;;;;13.07;5.72;;;5.20;99.90;;;;;;5053737;28;20041;-81
2023/12/12 09:23:10;;;;;;;14.25;6.15;;;5.30;99.90;;;;;;5053014;28;20028;-81
2023/12/12 09:25:35;;;;;;;10.77;5.68;;;5.30;99.90;;;;;;5048675;28;20483;-81
2023/12/12 09:28:01;;;;;;;19.02;5.90;;;5.50;99.90;;;;;;5051629;28;20066;-81
2023/12/12 09:30:27;;;;;;;11.75;5.70;;;5.60;99.90;;;;;;5068073;28;20384;-81
2023/12/12 09:32:53;;;;;;;15.30;7.65;;;5.60;99.90;;;;;;5047842;28;20068;-81
2023/12/12 09:35:19;;;;;;;11.68;6.75;;;5.70;99.90;;;;;;5035242;28;20040;-81
2023/12/12 09:37:44;;;;;;;12.35;5.95;;;5.60;99.90;;;;;;5050922;28;20128;-81
2023/12/12 09:40:11;;;;;;;13.88;7.05;;;5.60;99.90;;;;;;5037829;28;20123;-81
2023/12/12 09:42:38;;;;;;;16.08;6.70;;;5.60;99.90;;;;;;5070789;28;20045;-81
2023/12/12 09:45:11;;;;;;;13.55;6.25;;;5.60;99.90;;;;;;5038397;28;20039;-81
2023/12/12 09:47:38;;;;;;;11.55;6.82;;;5.70;99.90;;;;;;5038214;28;20037;-81
2023/12/12 09:50:06;;;;;;;10.27;5.78;;;5.70;99.90;;;;;;5050565;28;20578;-81
2023/12/12 09:52:35;;;;;;;15.48;6.63;;;5.80;99.90;;;;;;5054815;28;20052;-81
2023/12/12 09:55:03;;;;;;;15.45;6.22;;;5.90;99.90;;;;;;5054468;28;20363;-82
2023/12/12 09:57:30;;;;;;;12.10;5.70;;;6.00;99.90;;;;;;5061867;28;20069;-82
2023/12/12 09:59:58;;;;;;;18.30;6.35;;;6.10;99.90;;;;;;5050324;28;20044;-81
2023/12/12 10:02:30;;;;;;;11.13;6.15;;;6.20;99.90;;;;;;5064440;28;20116;-81
2023/12/12 10:04:56;;;;;;;10.73;5.20;;;6.20;99.90;;;;;;5065308;28;20025;-81
2023/12/12 10:07:24;;;;;;;12.05;7.50;;;6.30;99.90;;;;;;5035382;28;20033;-81
2023/12/12 10:09:50;;;;;;;14.40;6.63;;;6.30;99.90;;;;;;5054326;28;20102;-81
2023/12/12 10:12:17;;;;;;;14.55;6.28;;;6.30;99.90;;;;;;5035583;28;20038;-81
2023/12/12 10:14:44;;;;;;;12.30;6.53;;;6.30;99.90;;;;;;5031179;28;20072;-81
2023/12/12 10:17:11;;;;;;;13.68;7.05;;;6.40;99.90;;;;;;5052522;28;20097;-81
2023/12/12 10:19:38;;;;;;;11.55;6.18;;;6.30;99.90;;;;;;5047854;28;20117;-81
2023/12/12 10:22:10;;;;;;;15.18;6.65;;;6.40;99.90;;;;;;5053468;28;20032;-81
2023/12/12 10:24:37;;;;;;;12.32;5.53;;;6.40;99.90;;;;;;5051360;28;20046;-81
2023/12/12 10:27:06;;;;;;;10.38;5.60;;;6.40;99.90;;;;;;5053739;28;20033;-81
2023/12/12 10:29:32;;;;;;;13.47;6.03;;;6.40;99.90;;;;;;5052855;28;20041;-81
2023/12/12 10:31:59;;;;;;;13.48;6.25;;;6.40;99.90;;;;;;5038495;28;20037;-82
2023/12/12 10:34:27;;;;;;;13.30;5.80;;;6.50;99.90;;;;;;5067128;28;20037;-86
2023/12/12 10:36:53;;;;;;;13.25;6.07;;;6.50;99.90;;;;;;5058451;28;20060;-81
2023/12/12 10:39:19;;;;;;;10.57;5.85;;;6.60;99.90;;;;;;5051346;28;20037;-81
2023/12/12 10:41:55;;;;;;;13.60;5.97;;;6.60;99.90;;;;;;5035199;28;20148;-81
2023/12/12 10:44:32;;;;;;;12.27;5.68;;;6.70;99.90;;;;;;5050140;28;20056;-81
2023/12/12 10:47:01;;;;;;;15.15;6.07;;;6.80;99.90;;;;;;5047590;28;20029;-80
2023/12/12 10:49:32;;;;;;;9.38;6.07;;;6.80;99.90;;;;;;5037663;28;20043;-81
2023/12/12 10:52:05;;;;;;;15.15;6.05;;;6.90;99.90;;;;;;5036702;28;20044;-81
2023/12/12 10:54:36;;;;;;;14.15;6.18;;;6.90;99.90;;;;;;5037323;28;20037;-81
2023/12/12 10:57:02;;;;;;;12.32;6.53;;;7.00;99.90;;;;;;5037222;28;20037;-81
2023/12/12 10:59:30;;;;;;;14.30;5.57;;;7.10;99.90;;;;;;5038635;28;20104;-81
2023/12/12 11:01:57;;;;;;;13.25;6.38;;;7.20;99.90;;;;;;5038907;28;20067;-81
2023/12/12 11:04:24;;;;;;;10.93;6.25;;;7.30;99.90;;;;;;5037570;28;20033;-81
2023/12/12 11:06:51;;;;;;;13.90;7.10;;;7.30;99.90;;;;;;5051909;28;20029;-81
2023/12/12 11:09:18;;;;;;;15.57;7.55;;;7.30;99.90;;;;;;5068686;28;20527;-81
2023/12/12 11:11:48;;;;;;;15.05;6.35;;;7.30;99.90;;;;;;5033676;28;20041;-81
2023/12/12 11:14:16;;;;;;;15.48;6.55;;;7.30;99.90;;;;;;5053089;28;20083;-81
2023/12/12 11:16:43;;;;;;;11.90;6.43;;;7.30;99.90;;;;;;5053292;28;20449;-81
2023/12/12 11:19:16;;;;;;;12.93;7.10;;;7.30;99.90;;;;;;5026981;28;20076;-81
2023/12/12 11:21:45;;;;;;;16.17;7.30;;;7.20;99.90;;;;;;5044995;28;20032;-81
2023/12/12 11:24:12;;;;;;;10.82;6.22;;;7.20;99.90;;;;;;5061069;28;20045;-81
2023/12/12 11:26:41;;;;;;;16.80;6.15;;;7.20;99.90;;;;;;5034766;28;20090;-81
2023/12/12 11:29:10;;;;;;;14.63;6.03;;;7.20;99.90;;;;;;5073325;28;20106;-81
2023/12/12 11:31:36;;;;;;;13.30;6.18;;;7.10;99.90;;;;;;5056882;28;20037;-81
2023/12/12 11:34:05;;;;;;;10.90;5.57;;;7.10;99.90;;;;;;5034583;28;20045;-81
2023/12/12 11:36:54;;;;;;;14.45;6.53;;;7.10;99.90;;;;;;5050142;28;20037;-81
2023/12/12 11:39:37;;;;;;;11.68;5.50;;;7.10;99.90;;;;;;5056316;28;20496;-80
2023/12/12 11:42:05;;;;;;;10.15;5.97;;;7.10;99.90;;;;;;5037768;28;20390;-80
2023/12/12 11:44:42;;;;;;;12.93;5.63;;;7.10;99.90;;;;;;5039719;28;20040;-80
2023/12/12 11:47:14;;;;;;;9.80;4.60;;;7.10;99.90;;;;;;5028046;28;20033;-80
2023/12/12 11:49:40;;;;;;;12.65;6.18;;;7.00;99.90;;;;;;5049553;28;20427;-81
2023/12/12 11:52:07;;;;;;;10.80;5.30;;;7.00;99.90;;;;;;5033529;28;20075;-80
2023/12/12 11:54:33;;;;;;;16.67;5.65;;;7.00;99.90;;;;;;5051536;28;20063;-81
2023/12/12 11:57:00;;;;;;;11.10;5.30;;;7.10;99.90;;;;;;5050039;28;20053;-81
2023/12/12 11:59:28;;;;;;;10.40;4.82;;;7.10;99.90;;;;;;5055266;28;20033;-81
2023/12/12 12:01:54;;;;;;;12.88;5.25;;;7.20;99.90;;;;;;5056821;28;20033;-81
2023/12/12 12:04:21;;;;;;;14.52;5.43;;;7.20;99.90;;;;;;5038123;28;20033;-80
2023/12/12 12:06:50;;;;;;;12.15;5.72;;;7.20;99.90;;;;;;5038994;28;20045;-80
2023/12/12 12:09:16;;;;;;;9.25;4.95;;;7.30;99.90;;;;;;5039905;28;20076;-80
2023/12/12 12:11:47;;;;;;;9.02;5.07;;;7.30;99.90;;;;;;5040898;28;20414;-81
2023/12/12 12:14:16;;;;;;;17.42;6.20;;;7.30;99.90;;;;;;5052453;28;20451;-81
2023/12/12 12:16:42;;;;;;;12.25;5.32;;;7.30;99.90;;;;;;5035119;28;20088;-81
2023/12/12 12:19:31;;;;;;;10.57;5.78;;;7.30;99.90;;;;;;5040191;28;20036;-81
2023/12/12 12:22:02;;;;;;;14.32;5.57;;;7.30;99.90;;;;;;5036372;28;20123;-80
2023/12/12 12:24:29;;;;;;;10.85;6.55;;;7.30;99.90;;;;;;5053119;28;20040;-80
2023/12/12 12:26:55;;;;;;;11.68;5.28;;;7.30;99.90;;;;;;5057300;28;20039;-80
2023/12/12 12:29:21;;;;;;;10.90;4.80;;;7.30;99.90;;;;;;5040398;28;20387;-80
2023/12/12 12:31:47;;;;;;;11.75;5.68;;;7.40;99.90;;;;;;5056773;28;20502;-80
2023/12/12 12:34:21;;;;;;;10.98;5.43;;;7.30;99.90;;;;;;5050768;28;20103;-80
2023/12/12 12:36:46;;;;;;;10.40;5.13;;;7.30;99.90;;;;;;5053096;28;20047;-84
2023/12/12 12:39:16;;;;;;;10.40;5.05;;;7.30;99.90;;;;;;5036236;28;20037;-81
2023/12/12 12:41:46;;;;;;;16.92;6.07;;;7.40;99.90;;;;;;5039683;28;20046;-81
2023/12/12 12:44:12;;;;;;;10.85;4.32;;;7.40;99.90;;;;;;5038987;28;20037;-80
2023/12/12 12:46:38;;;;;;;12.07;6.15;;;7.40;99.90;;;;;;5038861;28;20041;-80
2023/12/12 12:49:03;;;;;;;12.07;5.68;;;7.40;99.90;;;;;;5053963;28;20043;-80
2023/12/12 12:51:30;;;;;;;20.58;6.35;;;7.40;99.90;;;;;;5071442;28;20071;-80